sensor_id;sensor_type;location;lat;lon;timestamp;pressure;altitude;pressure_sealevel;temperature;humidity
55347;BME280;41218;55.700;38.270;2022-10-16T00:00:40;101106.38;;;3.73;70.40
55347;BME280;41218;55.700;38.270;2022-10-16T00:05:42;101117.91;;;3.70;70.23
55347;BME280;41218;55.700;38.270;2022-10-16T00:10:43;101115.19;;;3.65;70.32
55347;BME280;41218;55.700;38.270;2022-10-16T00:15:44;101115.00;;;3.61;70.52
55347;BME280;41218;55.700;38.270;2022-10-16T00:20:44;101116.34;;;3.58;70.53
55347;BME280;41218;55.700;38.270;2022-10-16T00:25:45;101119.44;;;3.52;70.40
55347;BME280;41218;55.700;38.270;2022-10-16T00:30:54;101122.75;;;3.49;70.59
55347;BME280;41218;55.700;38.270;2022-10-16T00:35:58;101116.22;;;3.45;70.74
55347;BME280;41218;55.700;38.270;2022-10-16T00:40:59;101122.28;;;3.41;70.66
55347;BME280;41218;55.700;38.270;2022-10-16T00:46:00;101125.88;;;3.37;70.49
55347;BME280;41218;55.700;38.270;2022-10-16T00:51:01;101118.00;;;3.30;70.68
55347;BME280;41218;55.700;38.270;2022-10-16T00:56:03;101129.25;;;3.29;70.62
55347;BME280;41218;55.700;38.270;2022-10-16T01:01:03;101131.44;;;3.27;70.78
55347;BME280;41218;55.700;38.270;2022-10-16T01:06:13;101142.41;;;3.21;70.78
55347;BME280;41218;55.700;38.270;2022-10-16T01:11:26;101144.06;;;3.17;70.70
55347;BME280;41218;55.700;38.270;2022-10-16T01:16:37;101140.28;;;3.13;70.76
55347;BME280;41218;55.700;38.270;2022-10-16T01:21:42;101144.69;;;3.09;70.74
55347;BME280;41218;55.700;38.270;2022-10-16T01:27:11;101127.03;;;2.96;70.59
55347;BME280;41218;55.700;38.270;2022-10-16T01:32:33;101149.97;;;3.00;70.82
55347;BME280;41218;55.700;38.270;2022-10-16T01:43:17;101153.91;;;2.84;70.49
55347;BME280;41218;55.700;38.270;2022-10-16T01:48:20;101154.44;;;2.81;71.17
55347;BME280;41218;55.700;38.270;2022-10-16T01:53:24;101147.41;;;2.75;70.51
55347;BME280;41218;55.700;38.270;2022-10-16T01:58:27;101156.66;;;2.79;70.55
55347;BME280;41218;55.700;38.270;2022-10-16T02:03:32;101166.50;;;2.75;70.86
55347;BME280;41218;55.700;38.270;2022-10-16T02:08:34;101165.97;;;2.73;70.61
55347;BME280;41218;55.700;38.270;2022-10-16T02:18:45;101169.56;;;2.68;70.50
55347;BME280;41218;55.700;38.270;2022-10-16T02:28:49;101173.16;;;2.58;70.55
55347;BME280;41218;55.700;38.270;2022-10-16T02:33:53;101178.34;;;2.60;70.41
55347;BME280;41218;55.700;38.270;2022-10-16T02:38:55;101180.56;;;2.53;70.69
55347;BME280;41218;55.700;38.270;2022-10-16T02:43:56;101182.75;;;2.51;70.83
55347;BME280;41218;55.700;38.270;2022-10-16T02:48:56;101183.00;;;2.49;70.60
55347;BME280;41218;55.700;38.270;2022-10-16T02:53:56;101173.00;;;2.39;70.80
55347;BME280;41218;55.700;38.270;2022-10-16T02:58:57;101184.97;;;2.44;70.61
55347;BME280;41218;55.700;38.270;2022-10-16T03:03:57;101185.25;;;2.37;70.70
55347;BME280;41218;55.700;38.270;2022-10-16T03:08:58;101178.19;;;2.36;70.71
55347;BME280;41218;55.700;38.270;2022-10-16T03:13:58;101184.19;;;2.33;70.43
55347;BME280;41218;55.700;38.270;2022-10-16T03:18:59;101195.09;;;2.33;70.50
55347;BME280;41218;55.700;38.270;2022-10-16T03:23:59;101191.28;;;2.29;70.76
55347;BME280;41218;55.700;38.270;2022-10-16T03:29:00;101198.94;;;2.27;70.46
55347;BME280;41218;55.700;38.270;2022-10-16T03:34:02;101203.84;;;2.25;70.24
55347;BME280;41218;55.700;38.270;2022-10-16T03:39:03;101204.16;;;2.23;70.81
55347;BME280;41218;55.700;38.270;2022-10-16T03:44:03;101198.16;;;2.21;70.52
55347;BME280;41218;55.700;38.270;2022-10-16T03:49:04;101204.16;;;2.18;70.47
55347;BME280;41218;55.700;38.270;2022-10-16T03:54:04;101199.25;;;2.15;70.65
55347;BME280;41218;55.700;38.270;2022-10-16T03:59:05;101207.16;;;2.16;70.62
55347;BME280;41218;55.700;38.270;2022-10-16T04:04:05;101211.00;;;2.15;70.41
55347;BME280;41218;55.700;38.270;2022-10-16T04:09:06;101200.91;;;2.11;70.54
55347;BME280;41218;55.700;38.270;2022-10-16T04:14:06;101216.47;;;2.10;70.38
55347;BME280;41218;55.700;38.270;2022-10-16T04:19:08;101210.72;;;2.07;70.60
55347;BME280;41218;55.700;38.270;2022-10-16T04:24:09;101204.72;;;2.05;70.71
55347;BME280;41218;55.700;38.270;2022-10-16T04:29:11;101213.75;;;2.05;70.43
55347;BME280;41218;55.700;38.270;2022-10-16T04:34:12;101214.84;;;2.04;70.74
55347;BME280;41218;55.700;38.270;2022-10-16T04:39:12;101213.22;;;2.03;70.49
55347;BME280;41218;55.700;38.270;2022-10-16T04:44:13;101213.22;;;1.98;70.62
55347;BME280;41218;55.700;38.270;2022-10-16T04:49:13;101218.41;;;1.99;70.75
55347;BME280;41218;55.700;38.270;2022-10-16T04:54:14;101226.84;;;2.03;70.63
55347;BME280;41218;55.700;38.270;2022-10-16T04:59:14;101226.00;;;2.03;70.47
55347;BME280;41218;55.700;38.270;2022-10-16T05:04:15;101228.22;;;2.06;70.76
55347;BME280;41218;55.700;38.270;2022-10-16T05:09:16;101232.00;;;2.05;70.45
55347;BME280;41218;55.700;38.270;2022-10-16T05:14:17;101215.94;;;2.03;70.68
55347;BME280;41218;55.700;38.270;2022-10-16T05:19:17;101231.19;;;2.09;70.59
55347;BME280;41218;55.700;38.270;2022-10-16T05:24:18;101225.75;;;2.09;70.49
55347;BME280;41218;55.700;38.270;2022-10-16T05:29:19;101227.38;;;2.15;70.16
55347;BME280;41218;55.700;38.270;2022-10-16T05:34:19;101228.44;;;2.14;70.20
55347;BME280;41218;55.700;38.270;2022-10-16T05:39:20;101237.97;;;2.22;70.37
55347;BME280;41218;55.700;38.270;2022-10-16T05:44:21;101239.31;;;2.25;70.58
55347;BME280;41218;55.700;38.270;2022-10-16T05:49:21;101241.53;;;2.23;70.48
55347;BME280;41218;55.700;38.270;2022-10-16T05:54:22;101248.84;;;2.32;70.48
55347;BME280;41218;55.700;38.270;2022-10-16T05:59:22;101253.47;;;2.42;70.41
55347;BME280;41218;55.700;38.270;2022-10-16T06:04:23;101255.91;;;2.49;70.65
55347;BME280;41218;55.700;38.270;2022-10-16T06:09:23;101257.25;;;2.56;70.92
55347;BME280;41218;55.700;38.270;2022-10-16T06:14:24;101258.00;;;2.67;70.80
55347;BME280;41218;55.700;38.270;2022-10-16T06:19:24;101245.16;;;2.73;71.15
55347;BME280;41218;55.700;38.270;2022-10-16T06:24:25;101248.63;;;2.84;71.31
55347;BME280;41218;55.700;38.270;2022-10-16T06:29:25;101242.84;;;2.95;71.35
55347;BME280;41218;55.700;38.270;2022-10-16T06:34:26;101252.31;;;3.13;71.44
55347;BME280;41218;55.700;38.270;2022-10-16T06:39:26;101255.16;;;3.32;71.47
55347;BME280;41218;55.700;38.270;2022-10-16T06:44:27;101268.13;;;3.56;71.33
55347;BME280;41218;55.700;38.270;2022-10-16T06:49:27;101269.34;;;3.74;71.45
55347;BME280;41218;55.700;38.270;2022-10-16T06:54:28;101272.19;;;3.93;70.99
55347;BME280;41218;55.700;38.270;2022-10-16T06:59:29;101272.34;;;4.07;70.87
55347;BME280;41218;55.700;38.270;2022-10-16T07:04:29;101263.91;;;4.27;70.55
55347;BME280;41218;55.700;38.270;2022-10-16T07:09:30;101273.00;;;4.47;70.64
55347;BME280;41218;55.700;38.270;2022-10-16T07:14:30;101278.25;;;4.67;70.70
55347;BME280;41218;55.700;38.270;2022-10-16T07:19:31;101276.41;;;4.81;70.42
55347;BME280;41218;55.700;38.270;2022-10-16T07:24:31;101283.56;;;5.01;70.41
55347;BME280;41218;55.700;38.270;2022-10-16T07:29:32;101288.25;;;5.20;69.87
55347;BME280;41218;55.700;38.270;2022-10-16T07:34:32;101289.34;;;5.38;69.50
55347;BME280;41218;55.700;38.270;2022-10-16T07:39:33;101290.13;;;5.57;69.35
55347;BME280;41218;55.700;38.270;2022-10-16T07:44:34;101280.56;;;5.74;69.05
55347;BME280;41218;55.700;38.270;2022-10-16T07:49:34;101284.06;;;5.93;69.11
55347;BME280;41218;55.700;38.270;2022-10-16T07:54:35;101281.63;;;6.11;68.67
55347;BME280;41218;55.700;38.270;2022-10-16T07:59:35;101276.84;;;6.30;68.35
55347;BME280;41218;55.700;38.270;2022-10-16T08:04:36;101274.63;;;6.46;68.20
55347;BME280;41218;55.700;38.270;2022-10-16T08:09:36;101276.06;;;6.71;67.79
55347;BME280;41218;55.700;38.270;2022-10-16T08:14:37;101277.03;;;6.89;67.86
55347;BME280;41218;55.700;38.270;2022-10-16T08:19:37;101273.03;;;7.09;67.20
55347;BME280;41218;55.700;38.270;2022-10-16T08:24:38;101273.19;;;7.27;66.89
55347;BME280;41218;55.700;38.270;2022-10-16T08:29:38;101271.22;;;7.41;66.63
55347;BME280;41218;55.700;38.270;2022-10-16T08:34:39;101277.47;;;7.55;66.11
55347;BME280;41218;55.700;38.270;2022-10-16T08:39:39;101270.28;;;7.68;65.85
55347;BME280;41218;55.700;38.270;2022-10-16T08:44:54;101271.00;;;7.82;65.09
55347;BME280;41218;55.700;38.270;2022-10-16T08:50:08;101268.84;;;7.93;64.94
55347;BME280;41218;55.700;38.270;2022-10-16T08:55:41;101267.63;;;8.08;63.67
55347;BME280;41218;55.700;38.270;2022-10-16T09:00:46;101264.47;;;8.23;64.03
55347;BME280;41218;55.700;38.270;2022-10-16T09:05:57;101273.94;;;8.40;63.75
55347;BME280;41218;55.700;38.270;2022-10-16T09:16:46;101261.09;;;8.67;62.08
55347;BME280;41218;55.700;38.270;2022-10-16T09:21:48;101268.09;;;8.81;63.02
55347;BME280;41218;55.700;38.270;2022-10-16T09:26:49;101264.03;;;8.88;62.71
55347;BME280;41218;55.700;38.270;2022-10-16T09:31:50;101267.47;;;9.02;62.47
55347;BME280;41218;55.700;38.270;2022-10-16T09:36:51;101266.03;;;9.13;61.63
55347;BME280;41218;55.700;38.270;2022-10-16T09:41:52;101258.25;;;9.24;61.51
55347;BME280;41218;55.700;38.270;2022-10-16T09:47:14;101253.56;;;9.33;60.29
55347;BME280;41218;55.700;38.270;2022-10-16T09:52:19;101252.06;;;9.45;60.59
55347;BME280;41218;55.700;38.270;2022-10-16T09:57:20;101263.28;;;9.57;59.98
55347;BME280;41218;55.700;38.270;2022-10-16T10:02:34;101255.31;;;9.64;58.20
55347;BME280;41218;55.700;38.270;2022-10-16T10:07:39;101256.44;;;9.72;57.95
55347;BME280;41218;55.700;38.270;2022-10-16T10:12:45;101250.91;;;9.80;58.40
55347;BME280;41218;55.700;38.270;2022-10-16T10:17:56;101246.50;;;9.88;58.34
55347;BME280;41218;55.700;38.270;2022-10-16T10:22:57;101244.53;;;9.97;58.10
55347;BME280;41218;55.700;38.270;2022-10-16T10:33:21;101241.22;;;10.13;56.60
55347;BME280;41218;55.700;38.270;2022-10-16T10:44:05;101235.19;;;10.19;55.30
55347;BME280;41218;55.700;38.270;2022-10-16T10:49:24;101236.97;;;10.33;55.87
55347;BME280;41218;55.700;38.270;2022-10-16T10:54:45;101235.16;;;10.37;55.44
55347;BME280;41218;55.700;38.270;2022-10-16T11:11:06;101240.97;;;10.44;54.70
55347;BME280;41218;55.700;38.270;2022-10-16T11:21:23;101223.41;;;10.49;54.87
55347;BME280;41218;55.700;38.270;2022-10-16T11:26:28;101223.81;;;10.59;55.38
55347;BME280;41218;55.700;38.270;2022-10-16T11:31:43;101211.81;;;10.55;53.45
55347;BME280;41218;55.700;38.270;2022-10-16T12:08:29;101195.63;;;10.66;53.87
55347;BME280;41218;55.700;38.270;2022-10-16T12:13:32;101187.34;;;10.66;53.51
55347;BME280;41218;55.700;38.270;2022-10-16T12:18:33;101188.97;;;10.67;53.83
55347;BME280;41218;55.700;38.270;2022-10-16T12:23:38;101181.81;;;10.66;53.05
55347;BME280;41218;55.700;38.270;2022-10-16T12:28:46;101182.97;;;10.65;53.73
55347;BME280;41218;55.700;38.270;2022-10-16T12:34:00;101179.41;;;10.65;52.38
55347;BME280;41218;55.700;38.270;2022-10-16T12:39:02;101184.09;;;10.64;53.46
55347;BME280;41218;55.700;38.270;2022-10-16T12:44:02;101174.75;;;10.56;53.19
55347;BME280;41218;55.700;38.270;2022-10-16T12:54:29;101175.53;;;10.57;52.44
55347;BME280;41218;55.700;38.270;2022-10-16T12:59:58;101177.50;;;10.56;52.46
55347;BME280;41218;55.700;38.270;2022-10-16T13:11:20;101177.06;;;10.46;52.76
55347;BME280;41218;55.700;38.270;2022-10-16T13:32:15;101174.38;;;10.28;53.68
55347;BME280;41218;55.700;38.270;2022-10-16T13:37:24;101180.56;;;10.25;53.29
55347;BME280;41218;55.700;38.270;2022-10-16T13:42:27;101168.13;;;10.10;53.78
55347;BME280;41218;55.700;38.270;2022-10-16T13:47:29;101180.78;;;10.11;54.09
55347;BME280;41218;55.700;38.270;2022-10-16T13:52:30;101186.50;;;10.06;54.34
55347;BME280;41218;55.700;38.270;2022-10-16T13:57:30;101180.66;;;9.99;54.63
55347;BME280;41218;55.700;38.270;2022-10-16T14:02:34;101174.69;;;9.88;54.79
55347;BME280;41218;55.700;38.270;2022-10-16T14:07:37;101176.66;;;9.79;55.02
55347;BME280;41218;55.700;38.270;2022-10-16T14:12:38;101166.16;;;9.63;55.47
55347;BME280;41218;55.700;38.270;2022-10-16T14:17:44;101174.81;;;9.53;55.75
55347;BME280;41218;55.700;38.270;2022-10-16T14:22:45;101178.56;;;9.40;56.46
55347;BME280;41218;55.700;38.270;2022-10-16T14:33:22;101177.09;;;9.16;57.23
55347;BME280;41218;55.700;38.270;2022-10-16T14:38:24;101179.56;;;9.00;57.33
55347;BME280;41218;55.700;38.270;2022-10-16T14:48:33;101178.88;;;8.77;58.29
55347;BME280;41218;55.700;38.270;2022-10-16T14:53:34;101193.63;;;8.64;58.44
55347;BME280;41218;55.700;38.270;2022-10-16T14:58:34;101191.50;;;8.52;58.68
55347;BME280;41218;55.700;38.270;2022-10-16T15:03:35;101183.81;;;8.40;59.31
55347;BME280;41218;55.700;38.270;2022-10-16T15:08:35;101192.56;;;8.34;59.59
55347;BME280;41218;55.700;38.270;2022-10-16T15:13:36;101184.88;;;8.22;59.84
55347;BME280;41218;55.700;38.270;2022-10-16T15:18:36;101190.88;;;8.15;60.08
55347;BME280;41218;55.700;38.270;2022-10-16T15:23:37;101188.41;;;8.05;60.57
55347;BME280;41218;55.700;38.270;2022-10-16T15:28:38;101182.03;;;7.96;60.66
55347;BME280;41218;55.700;38.270;2022-10-16T15:33:39;101191.06;;;7.88;61.11
55347;BME280;41218;55.700;38.270;2022-10-16T15:38:39;101191.03;;;7.79;61.17
55347;BME280;41218;55.700;38.270;2022-10-16T15:43:40;101165.66;;;7.59;61.47
55347;BME280;41218;55.700;38.270;2022-10-16T15:48:41;101180.72;;;7.62;61.68
55347;BME280;41218;55.700;38.270;2022-10-16T15:53:41;101156.63;;;7.36;62.23
55347;BME280;41218;55.700;38.270;2022-10-16T15:58:43;101179.28;;;7.42;62.28
55347;BME280;41218;55.700;38.270;2022-10-16T16:03:43;101186.88;;;7.36;62.47
55347;BME280;41218;55.700;38.270;2022-10-16T16:08:44;101181.00;;;7.29;62.42
55347;BME280;41218;55.700;38.270;2022-10-16T16:13:45;101176.38;;;7.16;63.02
55347;BME280;41218;55.700;38.270;2022-10-16T16:18:45;101179.75;;;7.13;63.14
55347;BME280;41218;55.700;38.270;2022-10-16T16:23:46;101179.53;;;7.09;63.04
55347;BME280;41218;55.700;38.270;2022-10-16T16:28:46;101181.28;;;7.05;63.19
55347;BME280;41218;55.700;38.270;2022-10-16T16:33:47;101176.84;;;6.95;63.79
55347;BME280;41218;55.700;38.270;2022-10-16T16:38:48;101181.84;;;6.93;63.94
55347;BME280;41218;55.700;38.270;2022-10-16T16:43:49;101169.03;;;6.89;63.97
55347;BME280;41218;55.700;38.270;2022-10-16T16:48:51;101173.03;;;6.82;63.91
55347;BME280;41218;55.700;38.270;2022-10-16T16:53:55;101168.75;;;6.76;64.03
55347;BME280;41218;55.700;38.270;2022-10-16T16:58:56;101166.25;;;6.66;64.29
55347;BME280;41218;55.700;38.270;2022-10-16T17:03:57;101172.66;;;6.61;64.39
55347;BME280;41218;55.700;38.270;2022-10-16T17:09:00;101172.47;;;6.58;64.51
55347;BME280;41218;55.700;38.270;2022-10-16T17:14:02;101171.97;;;6.56;64.47
55347;BME280;41218;55.700;38.270;2022-10-16T17:19:08;101170.75;;;6.48;65.01
55347;BME280;41218;55.700;38.270;2022-10-16T17:24:09;101175.53;;;6.42;64.92
55347;BME280;41218;55.700;38.270;2022-10-16T17:29:10;101179.78;;;6.49;64.75
55347;BME280;41218;55.700;38.270;2022-10-16T17:34:11;101181.34;;;6.41;65.01
55347;BME280;41218;55.700;38.270;2022-10-16T17:39:14;101187.22;;;6.34;65.04
55347;BME280;41218;55.700;38.270;2022-10-16T17:44:17;101176.97;;;6.26;65.19
55347;BME280;41218;55.700;38.270;2022-10-16T17:49:21;101171.47;;;6.26;65.24
55347;BME280;41218;55.700;38.270;2022-10-16T17:54:21;101174.56;;;6.25;65.26
55347;BME280;41218;55.700;38.270;2022-10-16T17:59:22;101167.53;;;6.18;65.36
55347;BME280;41218;55.700;38.270;2022-10-16T18:04:23;101173.03;;;6.18;65.57
55347;BME280;41218;55.700;38.270;2022-10-16T18:09:24;101180.13;;;6.19;65.54
55347;BME280;41218;55.700;38.270;2022-10-16T18:14:30;101179.13;;;6.15;66.01
55347;BME280;41218;55.700;38.270;2022-10-16T18:19:31;101183.28;;;6.13;66.02
55347;BME280;41218;55.700;38.270;2022-10-16T18:24:32;101195.38;;;6.12;66.19
55347;BME280;41218;55.700;38.270;2022-10-16T18:29:33;101180.34;;;6.09;66.00
55347;BME280;41218;55.700;38.270;2022-10-16T18:34:34;101185.63;;;6.06;66.32
55347;BME280;41218;55.700;38.270;2022-10-16T18:39:37;101156.09;;;5.83;65.82
55347;BME280;41218;55.700;38.270;2022-10-16T18:44:37;101181.44;;;5.94;65.89
55347;BME280;41218;55.700;38.270;2022-10-16T18:49:38;101191.81;;;5.97;66.28
55347;BME280;41218;55.700;38.270;2022-10-16T18:54:39;101184.16;;;5.94;66.20
55347;BME280;41218;55.700;38.270;2022-10-16T18:59:40;101176.81;;;5.90;66.02
55347;BME280;41218;55.700;38.270;2022-10-16T19:04:40;101171.16;;;5.86;66.43
55347;BME280;41218;55.700;38.270;2022-10-16T19:09:41;101169.50;;;5.85;66.41
55347;BME280;41218;55.700;38.270;2022-10-16T19:14:41;101173.56;;;5.88;66.57
55347;BME280;41218;55.700;38.270;2022-10-16T19:19:42;101177.44;;;5.87;66.33
55347;BME280;41218;55.700;38.270;2022-10-16T19:24:43;101177.84;;;5.80;66.28
55347;BME280;41218;55.700;38.270;2022-10-16T19:29:44;101179.47;;;5.81;66.75
55347;BME280;41218;55.700;38.270;2022-10-16T19:34:44;101179.25;;;5.77;66.40
55347;BME280;41218;55.700;38.270;2022-10-16T19:39:50;101173.88;;;5.72;66.18
55347;BME280;41218;55.700;38.270;2022-10-16T19:44:50;101179.34;;;5.72;66.55
55347;BME280;41218;55.700;38.270;2022-10-16T19:49:51;101178.22;;;5.73;66.50
55347;BME280;41218;55.700;38.270;2022-10-16T19:54:54;101174.16;;;5.71;66.69
55347;BME280;41218;55.700;38.270;2022-10-16T19:59:56;101169.59;;;5.66;66.73
55347;BME280;41218;55.700;38.270;2022-10-16T20:04:57;101175.28;;;5.70;66.82
55347;BME280;41218;55.700;38.270;2022-10-16T20:09:57;101171.72;;;5.69;66.94
55347;BME280;41218;55.700;38.270;2022-10-16T20:14:58;101167.44;;;5.63;66.41
55347;BME280;41218;55.700;38.270;2022-10-16T20:19:58;101161.44;;;5.61;66.72
55347;BME280;41218;55.700;38.270;2022-10-16T20:24:59;101165.81;;;5.62;66.69
55347;BME280;41218;55.700;38.270;2022-10-16T20:29:59;101166.94;;;5.61;66.70
55347;BME280;41218;55.700;38.270;2022-10-16T20:35:00;101154.34;;;5.60;66.55
55347;BME280;41218;55.700;38.270;2022-10-16T20:40:00;101155.03;;;5.52;66.46
55347;BME280;41218;55.700;38.270;2022-10-16T20:45:01;101158.81;;;5.56;66.84
55347;BME280;41218;55.700;38.270;2022-10-16T20:50:02;101148.72;;;5.51;66.96
55347;BME280;41218;55.700;38.270;2022-10-16T20:55:02;101167.63;;;5.53;66.90
55347;BME280;41218;55.700;38.270;2022-10-16T21:00:04;101162.75;;;5.50;66.72
55347;BME280;41218;55.700;38.270;2022-10-16T21:05:05;101148.69;;;5.37;66.91
55347;BME280;41218;55.700;38.270;2022-10-16T21:10:06;101157.84;;;5.47;67.08
55347;BME280;41218;55.700;38.270;2022-10-16T21:15:07;101151.06;;;5.44;66.82
55347;BME280;41218;55.700;38.270;2022-10-16T21:20:08;101147.00;;;5.41;66.88
55347;BME280;41218;55.700;38.270;2022-10-16T21:25:09;101147.06;;;5.36;66.88
55347;BME280;41218;55.700;38.270;2022-10-16T21:30:09;101134.78;;;5.34;67.28
55347;BME280;41218;55.700;38.270;2022-10-16T21:35:10;101149.28;;;5.34;67.01
55347;BME280;41218;55.700;38.270;2022-10-16T21:40:10;101147.16;;;5.31;67.08
55347;BME280;41218;55.700;38.270;2022-10-16T21:45:11;101144.78;;;5.25;67.05
55347;BME280;41218;55.700;38.270;2022-10-16T21:50:12;101137.75;;;5.18;67.02
55347;BME280;41218;55.700;38.270;2022-10-16T21:55:12;101152.50;;;5.22;67.18
55347;BME280;41218;55.700;38.270;2022-10-16T22:00:13;101152.78;;;5.21;67.15
55347;BME280;41218;55.700;38.270;2022-10-16T22:05:14;101139.47;;;5.14;67.29
55347;BME280;41218;55.700;38.270;2022-10-16T22:10:14;101142.72;;;5.16;67.38
55347;BME280;41218;55.700;38.270;2022-10-16T22:15:15;101140.59;;;5.13;67.54
55347;BME280;41218;55.700;38.270;2022-10-16T22:20:15;101144.22;;;5.09;67.24
55347;BME280;41218;55.700;38.270;2022-10-16T22:25:16;101144.31;;;5.04;67.41
55347;BME280;41218;55.700;38.270;2022-10-16T22:30:17;101147.06;;;5.04;67.59
55347;BME280;41218;55.700;38.270;2022-10-16T22:35:17;101146.31;;;4.98;67.55
55347;BME280;41218;55.700;38.270;2022-10-16T22:40:18;101149.88;;;4.98;67.47
55347;BME280;41218;55.700;38.270;2022-10-16T22:45:18;101148.16;;;5.02;67.56
55347;BME280;41218;55.700;38.270;2022-10-16T22:50:19;101144.09;;;5.00;67.26
55347;BME280;41218;55.700;38.270;2022-10-16T22:55:19;101124.28;;;4.89;67.38
55347;BME280;41218;55.700;38.270;2022-10-16T23:00:20;101141.75;;;4.93;67.45
55347;BME280;41218;55.700;38.270;2022-10-16T23:05:20;101142.84;;;4.92;67.72
55347;BME280;41218;55.700;38.270;2022-10-16T23:10:21;101134.09;;;4.90;68.14
55347;BME280;41218;55.700;38.270;2022-10-16T23:15:26;101140.41;;;4.91;67.44
55347;BME280;41218;55.700;38.270;2022-10-16T23:20:27;101139.38;;;4.87;67.48
55347;BME280;41218;55.700;38.270;2022-10-16T23:25:27;101138.78;;;4.90;67.96
55347;BME280;41218;55.700;38.270;2022-10-16T23:30:28;101124.03;;;4.86;67.77
55347;BME280;41218;55.700;38.270;2022-10-16T23:35:28;101127.28;;;4.88;67.95
55347;BME280;41218;55.700;38.270;2022-10-16T23:40:29;101111.25;;;4.81;67.84
55347;BME280;41218;55.700;38.270;2022-10-16T23:45:29;101101.38;;;4.80;67.74
55347;BME280;41218;55.700;38.270;2022-10-16T23:50:30;101102.50;;;4.79;67.93
55347;BME280;41218;55.700;38.270;2022-10-16T23:55:30;101093.25;;;4.75;67.93
